Time;durP1;ratioP1;P1;durP2;ratioP2;P2;SDS_P1;SDS_P2;PMS_P1;PMS_P2;Temp;Humidity;BMP_temperature;BMP_pressure;BME280_temperature;BME280_humidity;BME280_pressure;Samples;Min_cycle;Max_cycle;Signal;HPM_P1;HPM_P2
2022/06/02 00:01:38;;;;;;;;;;;23.80;41.20;;;;;;6351716;27;19923;-56
2022/06/02 00:04:43;;;;;;;;;;;23.80;41.80;;;;;;6358284;27;20895;-55
2022/06/02 00:07:50;;;;;;;;;;;23.70;41.10;;;;;;6354627;27;20035;-53
2022/06/02 00:10:56;;;;;;;;;;;23.80;41.20;;;;;;6354538;27;19931;-53
2022/06/02 00:14:00;;;;;;;;;;;23.70;41.20;;;;;;6355439;27;20062;-57
2022/06/02 00:17:11;;;;;;;;;;;23.50;41.10;;;;;;6337441;27;19922;-54
2022/06/02 00:20:14;;;;;;;;;;;23.70;41.20;;;;;;6353296;27;19937;-57
2022/06/02 00:23:24;;;;;;;;;;;23.40;40.90;;;;;;6354407;27;19930;-56
2022/06/02 00:26:29;;;;;;;;;;;23.80;41.30;;;;;;6352876;27;19923;-54
2022/06/02 00:29:36;;;;;;;;;;;23.40;41.00;;;;;;6352810;27;19930;-57
2022/06/02 00:32:44;;;;;;;;;;;23.60;41.10;;;;;;6352970;27;20779;-55
2022/06/02 00:35:50;;;;;;;;;;;23.90;41.30;;;;;;6355359;27;19927;-55
2022/06/02 00:38:52;;;;;;;;;;;23.50;41.20;;;;;;6350883;27;20430;-57
2022/06/02 00:41:58;;;;;;;;;;;23.40;41.00;;;;;;6347800;27;19973;-54
2022/06/02 00:45:04;;;;;;;;;;;23.70;41.20;;;;;;6337143;27;19923;-52
2022/06/02 00:48:11;;;;;;;;;;;23.40;41.00;;;;;;6336028;27;19931;-55
2022/06/02 00:51:15;;;;;;;;;;;23.60;41.10;;;;;;6354817;27;19931;-53
2022/06/02 00:57:41;;;;;;;;;;;23.40;41.00;;;;;;6357138;27;20053;-54
2022/06/02 01:00:44;;;;;;;;;;;23.20;41.00;;;;;;6357601;27;20041;-56
2022/06/02 01:03:48;;;;;;;;;;;23.30;41.10;;;;;;6343188;27;20748;-55
2022/06/02 01:06:52;;;;;;;;;;;23.80;41.40;;;;;;6361978;27;19931;-53
2022/06/02 01:10:00;;;;;;;;;;;23.90;41.30;;;;;;6336048;27;19938;-55
2022/06/02 01:13:06;;;;;;;;;;;23.30;41.00;;;;;;6355595;27;21508;-52
2022/06/02 01:16:11;;;;;;;;;;;23.50;41.10;;;;;;6356751;27;20022;-51
2022/06/02 01:19:28;;;;;;;;;;;23.30;41.00;;;;;;6358513;27;20006;-53
2022/06/02 01:22:40;;;;;;;;;;;23.40;41.10;;;;;;6357710;27;20024;-56
2022/06/02 01:25:48;;;;;;;;;;;23.20;41.00;;;;;;6359136;27;19973;-54
2022/06/02 01:28:54;;;;;;;;;;;23.60;41.30;;;;;;6356108;27;19962;-53
2022/06/02 01:31:58;;;;;;;;;;;23.60;41.30;;;;;;6356596;27;19985;-52
2022/06/02 01:35:03;;;;;;;;;;;23.60;41.30;;;;;;6360843;27;19923;-53
2022/06/02 01:38:09;;;;;;;;;;;23.70;41.30;;;;;;6360073;27;20128;-55
2022/06/02 01:41:17;;;;;;;;;;;23.60;41.30;;;;;;6360752;27;19927;-57
2022/06/02 01:44:22;;;;;;;;;;;23.20;41.00;;;;;;6359216;27;19984;-52
2022/06/02 01:47:28;;;;;;;;;;;23.20;41.20;;;;;;6363119;27;20011;-53
2022/06/02 01:50:34;;;;;;;;;;;23.30;41.20;;;;;;6326075;27;20045;-51
2022/06/02 01:53:46;;;;;;;;;;;23.30;41.10;;;;;;6358472;27;20835;-56
2022/06/02 01:56:52;;;;;;;;;;;23.80;41.40;;;;;;6360456;27;19930;-54
2022/06/02 02:00:00;;;;;;;;;;;23.50;41.20;;;;;;6361780;27;19931;-53
2022/06/02 02:03:05;;;;;;;;;;;23.20;41.20;;;;;;6362227;27;20032;-56
2022/06/02 02:06:13;;;;;;;;;;;23.20;41.00;;;;;;6360405;27;19934;-52
2022/06/02 02:09:20;;;;;;;;;;;23.30;41.20;;;;;;6361773;27;19981;-52
2022/06/02 02:12:24;;;;;;;;;;;23.40;41.30;;;;;;6361470;27;20145;-52
2022/06/02 02:15:30;;;;;;;;;;;23.50;41.40;;;;;;6342257;27;19965;-58
2022/06/02 02:18:40;;;;;;;;;;;23.20;41.20;;;;;;6363323;27;19927;-57
2022/06/02 02:21:45;;;;;;;;;;;23.20;41.10;;;;;;6360543;27;19930;-53
2022/06/02 02:24:58;;;;;;;;;;;23.20;41.20;;;;;;6359909;27;19930;-54
2022/06/02 02:28:05;;;;;;;;;;;23.60;41.40;;;;;;6361921;27;19923;-52
2022/06/02 02:31:12;;;;;;;;;;;23.20;41.30;;;;;;6356862;27;19935;-54
2022/06/02 02:34:24;;;;;;;;;;;23.60;41.40;;;;;;6357737;27;19931;-54
2022/06/02 02:37:27;;;;;;;;;;;23.60;41.40;;;;;;6343963;27;19934;-53
2022/06/02 02:40:31;;;;;;;;;;;23.50;41.40;;;;;;6355739;27;19931;-51
2022/06/02 02:43:37;;;;;;;;;;;23.30;41.30;;;;;;6361234;27;19966;-52
2022/06/02 02:46:45;;;;;;;;;;;23.00;41.20;;;;;;6357646;27;20910;-55
2022/06/02 02:49:49;;;;;;;;;;;23.20;41.30;;;;;;6357204;27;19926;-55
2022/06/02 02:52:54;;;;;;;;;;;22.70;41.00;;;;;;6342362;27;19958;-53
2022/06/02 02:55:58;;;;;;;;;;;23.40;41.40;;;;;;6360265;27;20929;-53
2022/06/02 02:59:03;;;;;;;;;;;23.00;41.00;;;;;;6325102;27;19935;-55
2022/06/02 03:02:11;;;;;;;;;;;23.10;41.20;;;;;;6356385;27;20738;-53
2022/06/02 03:05:19;;;;;;;;;;;23.10;41.10;;;;;;6358523;27;19931;-55
2022/06/02 03:08:25;;;;;;;;;;;23.10;41.20;;;;;;6360409;27;20014;-52
2022/06/02 03:11:33;;;;;;;;;;;23.40;41.30;;;;;;6351149;27;20871;-54
2022/06/02 03:14:42;;;;;;;;;;;23.60;41.50;;;;;;6353814;27;19931;-55
2022/06/02 03:18:02;;;;;;;;;;;23.20;41.20;;;;;;6352852;27;20054;-53
2022/06/02 03:21:09;;;;;;;;;;;23.40;41.30;;;;;;6357190;27;19974;-56
2022/06/02 03:24:25;;;;;;;;;;;23.00;41.00;;;;;;6355165;27;19931;-54
2022/06/02 03:27:36;;;;;;;;;;;23.10;41.10;;;;;;6340001;27;19927;-54
2022/06/02 03:30:42;;;;;;;;;;;23.00;41.20;;;;;;6354366;27;20882;-55
2022/06/02 03:33:52;;;;;;;;;;;23.80;41.60;;;;;;6339093;27;19934;-54
2022/06/02 03:37:01;;;;;;;;;;;23.00;41.10;;;;;;6356289;27;19926;-52
2022/06/02 03:40:10;;;;;;;;;;;23.40;41.40;;;;;;6356139;27;20760;-54
2022/06/02 03:43:13;;;;;;;;;;;22.90;41.10;;;;;;6357440;27;20065;-54
2022/06/02 03:46:19;;;;;;;;;;;23.10;41.20;;;;;;6337674;27;19937;-53
2022/06/02 03:49:29;;;;;;;;;;;23.00;41.20;;;;;;6354190;27;19931;-50
2022/06/02 03:52:40;;;;;;;;;;;23.00;41.20;;;;;;6357662;27;20049;-53
2022/06/02 03:55:48;;;;;;;;;;;22.90;41.00;;;;;;6354349;27;19927;-53
2022/06/02 03:58:59;;;;;;;;;;;23.20;41.20;;;;;;6356158;27;19930;-50
2022/06/02 04:02:02;;;;;;;;;;;23.10;41.20;;;;;;6351957;27;19965;-58
2022/06/02 04:05:08;;;;;;;;;;;23.30;41.30;;;;;;6354708;27;19934;-52
2022/06/02 04:08:19;;;;;;;;;;;23.30;41.30;;;;;;6353247;27;20062;-52
2022/06/02 04:13:37;;;;;;;;;;;23.30;41.30;;;;;;6355376;27;20918;-50
2022/06/02 04:14:59;;;;;;;;;;;22.90;41.20;;;;;;6333906;27;19937;-49
2022/06/02 04:18:05;;;;;;;;;;;23.40;41.30;;;;;;6346692;27;20034;-56
2022/06/02 04:21:10;;;;;;;;;;;23.10;41.30;;;;;;6348033;27;19931;-53
2022/06/02 04:24:17;;;;;;;;;;;23.50;41.50;;;;;;6336049;27;19933;-52
2022/06/02 04:27:23;;;;;;;;;;;23.10;41.30;;;;;;6331595;27;19937;-52
2022/06/02 04:30:30;;;;;;;;;;;23.00;41.20;;;;;;6351762;27;20030;-51
2022/06/02 04:33:34;;;;;;;;;;;23.30;41.30;;;;;;6357937;27;20041;-52
2022/06/02 04:36:40;;;;;;;;;;;23.20;41.30;;;;;;6342480;27;19937;-51
2022/06/02 04:39:47;;;;;;;;;;;23.00;41.10;;;;;;6354041;27;21671;-49
2022/06/02 04:42:52;;;;;;;;;;;23.30;41.30;;;;;;6359479;27;20917;-51
2022/06/02 04:45:58;;;;;;;;;;;22.80;41.00;;;;;;6333626;27;19927;-52
2022/06/02 04:49:04;;;;;;;;;;;23.20;41.30;;;;;;6355694;27;19937;-51
2022/06/02 04:52:11;;;;;;;;;;;23.10;41.70;;;;;;6350230;27;19930;-50
2022/06/02 04:55:17;;;;;;;;;;;23.20;41.30;;;;;;6352873;27;20040;-51
2022/06/02 04:58:24;;;;;;;;;;;23.00;41.20;;;;;;6338011;27;19927;-53
2022/06/02 05:01:33;;;;;;;;;;;23.30;41.40;;;;;;6342608;27;19923;-52
2022/06/02 05:04:41;;;;;;;;;;;22.80;41.10;;;;;;6355223;27;19935;-54
2022/06/02 05:08:02;;;;;;;;;;;22.90;41.10;;;;;;6349384;27;20979;-50
2022/06/02 05:11:10;;;;;;;;;;;22.80;41.00;;;;;;6349419;27;21061;-51
2022/06/02 05:14:16;;;;;;;;;;;23.20;41.30;;;;;;6350784;27;20028;-54
2022/06/02 05:17:26;;;;;;;;;;;23.20;41.30;;;;;;6349604;27;20046;-54
2022/06/02 05:20:33;;;;;;;;;;;23.40;41.40;;;;;;6345250;27;20009;-53
2022/06/02 05:23:42;;;;;;;;;;;23.20;41.40;;;;;;6350208;27;20856;-51
2022/06/02 05:26:56;;;;;;;;;;;23.10;41.20;;;;;;6351095;27;20812;-50
2022/06/02 05:30:07;;;;;;;;;;;23.00;41.20;;;;;;6347693;27;20010;-53
2022/06/02 05:33:17;;;;;;;;;;;23.10;41.30;;;;;;6335201;27;19939;-53
2022/06/02 05:36:29;;;;;;;;;;;23.20;41.40;;;;;;6356961;27;19937;-54
2022/06/02 05:39:36;;;;;;;;;;;23.40;41.20;;;;;;6338289;27;19927;-50
2022/06/02 05:42:43;;;;;;;;;;;23.00;41.10;;;;;;6341819;27;20031;-53
2022/06/02 05:45:49;;;;;;;;;;;23.00;41.10;;;;;;6345841;27;20049;-53
2022/06/02 05:48:59;;;;;;;;;;;23.20;41.40;;;;;;6327478;27;19978;-50
2022/06/02 05:52:05;;;;;;;;;;;23.20;41.30;;;;;;6337229;27;19958;-53
2022/06/02 05:55:16;;;;;;;;;;;23.10;41.20;;;;;;6337668;27;19985;-51
2022/06/02 05:58:29;;;;;;;;;;;23.20;41.20;;;;;;6342190;27;19995;-59
2022/06/02 06:01:36;;;;;;;;;;;23.30;41.10;;;;;;6343440;27;20046;-54
2022/06/02 06:04:44;;;;;;;;;;;23.70;41.40;;;;;;6338018;27;20000;-50
2022/06/02 06:07:56;;;;;;;;;;;23.10;41.20;;;;;;6339223;27;21690;-52
2022/06/02 06:11:07;;;;;;;;;;;23.40;41.30;;;;;;6321514;27;19937;-54
2022/06/02 06:14:14;;;;;;;;;;;23.00;41.00;;;;;;6298922;27;20014;-52
2022/06/02 06:17:21;;;;;;;;;;;23.30;41.20;;;;;;6321843;27;20010;-53
2022/06/02 06:20:35;;;;;;;;;;;23.30;41.10;;;;;;6328223;27;19931;-55
2022/06/02 06:23:44;;;;;;;;;;;23.40;41.20;;;;;;6334482;27;19937;-52
2022/06/02 06:26:51;;;;;;;;;;;22.90;41.00;;;;;;6328353;27;20105;-54
2022/06/02 06:30:03;;;;;;;;;;;22.90;41.20;;;;;;6306311;27;20026;-51
2022/06/02 06:33:11;;;;;;;;;;;23.30;41.10;;;;;;6288134;27;20007;-54
2022/06/02 06:36:18;;;;;;;;;;;23.40;41.10;;;;;;6319034;27;19937;-52
2022/06/02 06:39:29;;;;;;;;;;;23.50;41.30;;;;;;6286334;27;20073;-54
2022/06/02 06:42:37;;;;;;;;;;;23.20;41.00;;;;;;6281035;27;19931;-49
2022/06/02 06:45:48;;;;;;;;;;;23.50;41.20;;;;;;6274105;27;19931;-52
2022/06/02 06:48:52;;;;;;;;;;;23.40;41.10;;;;;;6276450;27;21651;-54
2022/06/02 06:51:59;;;;;;;;;;;23.20;41.00;;;;;;6263196;27;19934;-55
2022/06/02 06:55:05;;;;;;;;;;;23.30;41.10;;;;;;6238486;27;19930;-54
2022/06/02 06:58:11;;;;;;;;;;;23.10;40.90;;;;;;6232950;27;20158;-54
2022/06/02 07:01:17;;;;;;;;;;;23.40;41.10;;;;;;6210809;27;20779;-56
2022/06/02 07:04:28;;;;;;;;;;;23.60;41.30;;;;;;6200361;27;20331;-61
2022/06/02 07:07:33;;;;;;;;;;;23.30;41.00;;;;;;6179670;27;19935;-57
2022/06/02 07:10:37;;;;;;;;;;;23.40;41.00;;;;;;6182903;27;19986;-53
2022/06/02 07:13:43;;;;;;;;;;;23.30;41.00;;;;;;6182812;27;19931;-57
2022/06/02 07:16:47;;;;;;;;;;;23.50;40.60;;;;;;6182890;27;19931;-54
2022/06/02 07:19:54;;;;;;;;;;;23.40;40.90;;;;;;6137848;27;19931;-55
2022/06/02 07:23:03;;;;;;;;;;;23.60;41.00;;;;;;6152251;27;19935;-56
2022/06/02 07:26:10;;;;;;;;;;;23.60;40.90;;;;;;6165403;27;19969;-55
2022/06/02 07:32:55;;;;;;;;;;;23.60;41.00;;;;;;6123491;27;19938;-59
2022/06/02 07:36:11;;;;;;;;;;;23.50;40.80;;;;;;6093257;27;33124;-61
2022/06/02 07:39:27;;;;;;;;;;;23.70;40.80;;;;;;6102786;27;19937;-61
2022/06/02 07:42:54;;;;;;;;;;;23.30;40.60;;;;;;6136677;27;21093;-56
2022/06/02 07:46:06;;;;;;;;;;;23.90;40.30;;;;;;6128746;27;21820;-57
2022/06/02 07:49:16;;;;;;;;;;;23.90;40.60;;;;;;6126335;27;19940;-57
2022/06/02 07:52:22;;;;;;;;;;;23.70;40.60;;;;;;6143692;27;19930;-58
2022/06/02 07:55:29;;;;;;;;;;;23.90;40.70;;;;;;6163099;27;19989;-58
2022/06/02 07:58:37;;;;;;;;;;;23.60;40.50;;;;;;6111049;27;20061;-53
2022/06/02 08:02:14;;;;;;;;;;;23.60;40.60;;;;;;6110718;27;19938;-53
2022/06/02 08:05:23;;;;;;;;;;;23.60;40.60;;;;;;6116007;27;20069;-54
2022/06/02 08:08:29;;;;;;;;;;;23.70;40.60;;;;;;6094685;27;19993;-57
2022/06/02 08:11:37;;;;;;;;;;;23.80;40.70;;;;;;6099285;27;19937;-55
2022/06/02 08:14:45;;;;;;;;;;;23.90;40.30;;;;;;6127133;27;20221;-55
2022/06/02 08:17:48;;;;;;;;;;;23.80;40.60;;;;;;6112573;27;19938;-54
2022/06/02 08:20:53;;;;;;;;;;;23.80;41.00;;;;;;6116497;27;19931;-54
2022/06/02 08:24:07;;;;;;;;;;;23.90;40.80;;;;;;6078913;27;19930;-56
2022/06/02 08:27:14;;;;;;;;;;;23.90;40.80;;;;;;6110255;27;19931;-58
2022/06/02 08:30:18;;;;;;;;;;;23.80;40.70;;;;;;6136985;27;20041;-57
2022/06/02 08:33:29;;;;;;;;;;;23.90;40.90;;;;;;6086288;27;19972;-55
2022/06/02 08:36:34;;;;;;;;;;;23.90;40.80;;;;;;6091828;27;20651;-55
2022/06/02 08:39:44;;;;;;;;;;;24.10;41.00;;;;;;6092613;27;19931;-55
2022/06/02 08:43:04;;;;;;;;;;;23.90;40.90;;;;;;6128476;27;21635;-56
2022/06/02 08:46:18;;;;;;;;;;;24.00;40.90;;;;;;6080651;27;20088;-56
2022/06/02 08:49:35;;;;;;;;;;;23.90;40.80;;;;;;6120962;27;19937;-50
2022/06/02 08:52:49;;;;;;;;;;;24.10;40.90;;;;;;6118875;27;19939;-51
2022/06/02 08:55:59;;;;;;;;;;;23.70;40.50;;;;;;6135340;27;19931;-53
2022/06/02 08:59:07;;;;;;;;;;;24.00;40.70;;;;;;6126446;27;19935;-51
2022/06/02 09:02:25;;;;;;;;;;;24.20;40.70;;;;;;6108825;27;19938;-53
2022/06/02 09:05:36;;;;;;;;;;;23.80;40.60;;;;;;6095106;27;20018;-50
2022/06/02 09:08:48;;;;;;;;;;;23.90;40.50;;;;;;6078866;27;19931;-49
2022/06/02 09:12:06;;;;;;;;;;;24.10;40.80;;;;;;6132111;27;19973;-52
2022/06/02 09:15:18;;;;;;;;;;;24.20;40.60;;;;;;6124224;27;22455;-48
2022/06/02 09:18:43;;;;;;;;;;;24.40;40.70;;;;;;6165061;27;19938;-48
2022/06/02 09:22:15;;;;;;;;;;;24.00;40.40;;;;;;6123082;27;19931;-51
2022/06/02 09:25:21;;;;;;;;;;;24.30;40.60;;;;;;6127147;27;19934;-50
2022/06/02 09:28:38;;;;;;;;;;;23.80;40.30;;;;;;6102147;27;19930;-51
2022/06/02 09:31:47;;;;;;;;;;;24.40;40.70;;;;;;6071864;27;20022;-53
2022/06/02 09:35:07;;;;;;;;;;;24.30;40.60;;;;;;6111955;27;20054;-51
2022/06/02 09:38:24;;;;;;;;;;;24.20;40.50;;;;;;6120155;27;19931;-53
2022/06/02 09:41:30;;;;;;;;;;;24.20;40.60;;;;;;6109366;27;20135;-49
2022/06/02 09:44:41;;;;;;;;;;;24.10;40.70;;;;;;6163068;27;19931;-54
2022/06/02 09:47:55;;;;;;;;;;;24.30;40.70;;;;;;6075939;27;19931;-54
2022/06/02 09:51:05;;;;;;;;;;;24.20;40.60;;;;;;6120858;27;19931;-54
2022/06/02 09:54:25;;;;;;;;;;;24.10;40.60;;;;;;6110494;27;20063;-55
2022/06/02 09:57:56;;;;;;;;;;;24.20;40.60;;;;;;6111012;27;19931;-51
2022/06/02 10:01:29;;;;;;;;;;;24.20;40.70;;;;;;6120333;27;20912;-48
2022/06/02 10:04:44;;;;;;;;;;;24.40;40.70;;;;;;6107491;27;20014;-52
2022/06/02 10:07:52;;;;;;;;;;;24.30;40.70;;;;;;6114419;27;20128;-52
2022/06/02 10:11:00;;;;;;;;;;;24.40;40.80;;;;;;6126380;27;20022;-52
2022/06/02 10:14:19;;;;;;;;;;;24.00;40.50;;;;;;6166303;27;19931;-53
2022/06/02 10:17:35;;;;;;;;;;;24.20;40.10;;;;;;6164733;27;19934;-54
2022/06/02 10:20:53;;;;;;;;;;;24.20;40.70;;;;;;6173826;27;20015;-50
2022/06/02 10:24:06;;;;;;;;;;;24.20;40.70;;;;;;6173005;27;21703;-51
2022/06/02 10:27:20;;;;;;;;;;;24.10;40.60;;;;;;6200220;27;20884;-55
2022/06/02 10:30:32;;;;;;;;;;;24.40;40.60;;;;;;6203959;27;19934;-51
2022/06/02 10:33:42;;;;;;;;;;;24.10;40.40;;;;;;6191536;27;19938;-49
2022/06/02 10:36:54;;;;;;;;;;;24.30;40.50;;;;;;6208434;27;20312;-50
2022/06/02 10:40:10;;;;;;;;;;;24.40;40.60;;;;;;6221466;27;19930;-49
2022/06/02 10:43:26;;;;;;;;;;;24.30;40.60;;;;;;6200019;27;19931;-48
2022/06/02 10:46:39;;;;;;;;;;;24.30;40.60;;;;;;6231699;27;20132;-51
2022/06/02 10:49:53;;;;;;;;;;;24.30;40.60;;;;;;6252680;27;21498;-50
2022/06/02 10:53:09;;;;;;;;;;;24.30;40.70;;;;;;6235157;27;19938;-50
2022/06/02 10:56:19;;;;;;;;;;;24.40;40.70;;;;;;6225539;27;20065;-51
2022/06/02 10:59:33;;;;;;;;;;;24.30;40.70;;;;;;6220030;27;20026;-49
2022/06/02 11:02:50;;;;;;;;;;;24.50;40.90;;;;;;6196815;27;20108;-50
2022/06/02 11:06:06;;;;;;;;;;;24.80;41.00;;;;;;6254557;27;19931;-51
2022/06/02 11:09:22;;;;;;;;;;;24.40;40.80;;;;;;6236913;27;20063;-49
2022/06/02 11:12:42;;;;;;;;;;;24.20;40.70;;;;;;6208152;27;19931;-52
2022/06/02 11:15:58;;;;;;;;;;;24.40;41.50;;;;;;6242573;27;19935;-47
2022/06/02 11:19:15;;;;;;;;;;;24.20;40.90;;;;;;6255526;27;19939;-48
2022/06/02 11:22:25;;;;;;;;;;;24.30;40.80;;;;;;6212030;27;19930;-51
2022/06/02 11:25:50;;;;;;;;;;;24.30;40.90;;;;;;6252693;27;19938;-51
2022/06/02 11:29:10;;;;;;;;;;;24.10;41.00;;;;;;6252271;27;20277;-49
2022/06/02 11:32:13;;;;;;;;;;;24.10;40.70;;;;;;6216989;27;19934;-48
2022/06/02 11:35:26;;;;;;;;;;;24.40;40.90;;;;;;6227940;27;20061;-50
2022/06/02 11:38:43;;;;;;;;;;;24.00;40.70;;;;;;6245636;27;19974;-53
2022/06/02 11:41:47;;;;;;;;;;;24.40;40.80;;;;;;6187635;27;19931;-52
2022/06/02 11:44:59;;;;;;;;;;;24.30;40.80;;;;;;6194813;27;22290;-54
2022/06/02 11:48:10;;;;;;;;;;;24.40;40.90;;;;;;6228397;27;20015;-55
2022/06/02 11:51:26;;;;;;;;;;;24.20;40.90;;;;;;6243331;27;19999;-51
2022/06/02 11:54:39;;;;;;;;;;;24.10;40.80;;;;;;6190672;27;19931;-51
2022/06/02 11:57:49;;;;;;;;;;;24.20;40.80;;;;;;6223359;27;19967;-51
2022/06/02 12:01:02;;;;;;;;;;;24.00;40.90;;;;;;6159136;27;19999;-48
2022/06/02 12:04:17;;;;;;;;;;;23.80;40.70;;;;;;6139492;27;20960;-48
2022/06/02 12:07:36;;;;;;;;;;;24.20;40.80;;;;;;6126428;27;19934;-49
2022/06/02 12:10:47;;;;;;;;;;;24.00;40.90;;;;;;6138775;27;19931;-48
2022/06/02 12:13:55;;;;;;;;;;;24.40;41.10;;;;;;6129237;27;19938;-46
2022/06/02 12:17:08;;;;;;;;;;;24.10;40.80;;;;;;6110236;27;19931;-49
2022/06/02 12:20:25;;;;;;;;;;;24.10;41.30;;;;;;6104061;27;19931;-49
2022/06/02 12:23:37;;;;;;;;;;;24.20;40.90;;;;;;6087201;27;19937;-46
2022/06/02 12:26:42;;;;;;;;;;;24.30;41.00;;;;;;6144978;27;21167;-49
2022/06/02 12:29:55;;;;;;;;;;;24.30;41.00;;;;;;6155083;27;22196;-48
2022/06/02 12:33:17;;;;;;;;;;;24.40;41.10;;;;;;6160746;27;19938;-51
2022/06/02 12:36:54;;;;;;;;;;;24.20;40.90;;;;;;6127604;27;20915;-48
2022/06/02 12:40:03;;;;;;;;;;;23.70;40.70;;;;;;6160401;27;20332;-51
2022/06/02 12:43:21;;;;;;;;;;;24.10;40.80;;;;;;6158412;27;20147;-48
2022/06/02 12:46:32;;;;;;;;;;;24.50;41.10;;;;;;6172821;27;19931;-48
2022/06/02 12:49:44;;;;;;;;;;;24.00;40.80;;;;;;6123003;27;21055;-48
2022/06/02 12:52:55;;;;;;;;;;;24.30;40.80;;;;;;6142765;27;20102;-50
2022/06/02 12:56:21;;;;;;;;;;;24.10;40.80;;;;;;6160887;27;20047;-48
2022/06/02 12:59:49;;;;;;;;;;;24.50;40.70;;;;;;6110573;27;19938;-50
2022/06/02 13:03:05;;;;;;;;;;;24.10;40.60;;;;;;6094443;27;20061;-52
2022/06/02 13:06:19;;;;;;;;;;;24.50;41.00;;;;;;6112074;27;20018;-51
2022/06/02 13:09:35;;;;;;;;;;;24.30;41.00;;;;;;6124725;27;19973;-50
2022/06/02 13:12:52;;;;;;;;;;;24.40;40.90;;;;;;6118547;27;20073;-47
2022/06/02 13:16:02;;;;;;;;;;;24.10;40.80;;;;;;6173227;27;20045;-52
2022/06/02 13:19:19;;;;;;;;;;;24.50;41.00;;;;;;6138103;27;20037;-50
2022/06/02 13:22:35;;;;;;;;;;;24.10;40.80;;;;;;6178489;27;19937;-50
2022/06/02 13:26:04;;;;;;;;;;;24.10;40.80;;;;;;6138844;27;20030;-49
2022/06/02 13:29:22;;;;;;;;;;;24.40;41.00;;;;;;6151831;27;20014;-48
2022/06/02 13:32:36;;;;;;;;;;;24.50;41.00;;;;;;6128398;27;19979;-50
2022/06/02 13:35:53;;;;;;;;;;;24.30;41.00;;;;;;6155094;27;19937;-51
2022/06/02 13:39:27;;;;;;;;;;;24.40;40.80;;;;;;6158838;27;19935;-51
2022/06/02 13:42:44;;;;;;;;;;;24.20;40.90;;;;;;6126226;27;19931;-49
2022/06/02 13:45:57;;;;;;;;;;;24.40;41.00;;;;;;6129233;27;21005;-50
2022/06/02 13:49:17;;;;;;;;;;;24.30;40.90;;;;;;6123578;27;19939;-50
2022/06/02 13:52:29;;;;;;;;;;;24.20;40.90;;;;;;6120305;27;19941;-51
2022/06/02 13:59:27;;;;;;;;;;;24.20;40.90;;;;;;6069037;27;19935;-56
2022/06/02 14:02:39;;;;;;;;;;;24.30;41.00;;;;;;6076565;27;21726;-53
2022/06/02 14:05:47;;;;;;;;;;;24.60;41.10;;;;;;6097659;27;19931;-53
2022/06/02 14:09:04;;;;;;;;;;;24.50;41.10;;;;;;6096323;27;19943;-54
2022/06/02 14:13:03;;;;;;;0.25;0.20;;;24.30;40.60;;;;;;6114612;27;20217;-51
2022/06/02 14:16:11;;;;;;;0.40;0.20;;;24.50;41.00;;;;;;6064299;27;20035;-57
2022/06/02 14:19:26;;;;;;;0.15;0.15;;;24.50;41.40;;;;;;6061064;27;20034;-57
2022/06/02 14:22:39;;;;;;;0.93;0.28;;;24.60;41.80;;;;;;6094014;27;20062;-57
2022/06/02 14:25:52;;;;;;;0.20;0.20;;;24.50;41.90;;;;;;6075317;27;20045;-54
2022/06/02 14:29:04;;;;;;;0.35;0.25;;;24.70;42.10;;;;;;6110401;27;20042;-57
2022/06/02 14:32:19;;;;;;;0.20;0.10;;;24.60;42.10;;;;;;6060589;27;21062;-56
2022/06/02 14:35:42;;;;;;;0.28;0.20;;;24.50;42.30;;;;;;6097112;27;20043;-53
2022/06/02 14:38:55;;;;;;;0.38;0.30;;;24.60;42.30;;;;;;6070381;27;20038;-56
2022/06/02 14:42:14;;;;;;;0.28;0.28;;;24.60;42.40;;;;;;6104400;27;26032;-52
2022/06/02 14:45:21;;;;;;;0.20;0.20;;;24.50;42.20;;;;;;6051368;27;20046;-55
2022/06/02 14:48:32;;;;;;;0.40;0.40;;;24.60;42.40;;;;;;6086483;27;20043;-55
2022/06/02 14:51:38;;;;;;;0.20;0.20;;;24.70;42.30;;;;;;6064330;27;20124;-53
2022/06/02 14:54:49;;;;;;;0.20;0.20;;;24.70;42.30;;;;;;6108112;27;20118;-53
2022/06/02 14:58:00;;;;;;;0.20;0.20;;;24.70;42.30;;;;;;6053341;27;20700;-56
2022/06/02 15:01:16;;;;;;;0.40;0.20;;;24.70;42.40;;;;;;6052167;27;20046;-57
2022/06/02 15:04:38;;;;;;;0.98;0.20;;;24.70;42.30;;;;;;6054688;27;20178;-52
2022/06/02 15:08:09;;;;;;;0.50;0.30;;;24.60;42.30;;;;;;6075679;27;20169;-58
2022/06/02 15:11:19;;;;;;;0.32;0.20;;;24.70;42.30;;;;;;6084127;27;20074;-51
2022/06/02 15:14:32;;;;;;;1.10;0.30;;;24.70;42.40;;;;;;6121407;27;20596;-50
2022/06/02 15:17:59;;;;;;;1.45;0.43;;;24.70;42.50;;;;;;6134846;27;20162;-49
2022/06/02 15:21:08;;;;;;;0.30;0.28;;;24.70;42.60;;;;;;6132267;27;20132;-53
2022/06/02 15:24:29;;;;;;;0.43;0.30;;;24.40;42.50;;;;;;6088997;27;20041;-54
2022/06/02 15:27:53;;;;;;;0.10;0.10;;;24.60;42.70;;;;;;6128109;27;20047;-51
2022/06/02 15:31:14;;;;;;;0.30;0.22;;;24.70;42.70;;;;;;6109674;27;20042;-58
2022/06/02 15:34:46;;;;;;;0.25;0.25;;;24.70;42.80;;;;;;6100891;27;20121;-57
2022/06/02 15:38:05;;;;;;;0.60;0.38;;;24.70;42.80;;;;;;6129191;27;20054;-53
2022/06/02 15:41:29;;;;;;;0.28;0.20;;;24.70;42.70;;;;;;6114847;27;21569;-50
2022/06/02 15:45:00;;;;;;;0.20;0.20;;;24.20;42.50;;;;;;6148626;27;20135;-52
2022/06/02 15:48:30;;;;;;;0.13;0.10;;;24.60;42.70;;;;;;6118900;27;20153;-51
2022/06/02 15:51:52;;;;;;;0.43;0.30;;;24.80;42.90;;;;;;6158273;27;20127;-51
2022/06/02 15:55:19;;;;;;;0.30;0.30;;;24.80;42.90;;;;;;6151338;27;20073;-55
2022/06/02 15:58:34;;;;;;;0.40;0.30;;;24.80;42.90;;;;;;6182493;27;20034;-53
2022/06/02 16:02:02;;;;;;;0.35;0.20;;;24.80;42.90;;;;;;6138471;27;20174;-55
2022/06/02 16:05:28;;;;;;;0.22;0.22;;;24.90;42.90;;;;;;6121786;27;20059;-49
2022/06/02 16:11:14;;;;;;;2.88;0.30;;;24.90;43.00;;;;;;6150037;27;20039;-52
2022/06/02 16:12:57;;;;;;;1.33;0.13;;;24.90;43.00;;;;;;6147984;27;20083;-52
2022/06/02 16:16:23;;;;;;;0.22;0.10;;;24.90;42.90;;;;;;6186912;27;20217;-54
2022/06/02 16:19:49;;;;;;;0.43;0.30;;;25.10;43.00;;;;;;6177867;27;20288;-52
2022/06/02 16:23:19;;;;;;;0.38;0.20;;;25.20;43.00;;;;;;6170141;27;20162;-56
2022/06/02 16:26:43;;;;;;;0.20;0.20;;;25.00;42.80;;;;;;6203141;27;20166;-52
2022/06/02 16:30:05;;;;;;;0.28;0.25;;;25.00;42.80;;;;;;6214514;27;20308;-50
2022/06/02 16:33:27;;;;;;;0.13;0.10;;;25.00;42.60;;;;;;6217477;27;20047;-53
2022/06/02 16:36:44;;;;;;;0.20;0.20;;;24.90;42.50;;;;;;6245660;27;20251;-56
2022/06/02 16:39:58;;;;;;;0.20;0.20;;;25.00;42.50;;;;;;6240712;27;20081;-55
2022/06/02 16:43:27;;;;;;;0.20;0.20;;;25.00;42.50;;;;;;6194689;27;20456;-54
2022/06/02 16:46:52;;;;;;;0.20;0.20;;;25.30;42.60;;;;;;6218175;27;20046;-53
2022/06/02 16:50:11;;;;;;;0.20;0.20;;;25.00;42.50;;;;;;6246566;27;20043;-50
2022/06/02 16:56:59;;;;;;;0.10;0.10;;;25.00;42.50;;;;;;6247707;27;21142;-51
2022/06/02 17:00:13;;;;;;;0.30;0.28;;;25.10;42.50;;;;;;6235918;27;20169;-59
2022/06/02 17:03:28;;;;;;;0.57;0.30;;;25.10;42.40;;;;;;6213593;27;20073;-55
2022/06/02 17:06:38;;;;;;;0.30;0.10;;;25.00;42.30;;;;;;6206183;27;20173;-55
2022/06/02 17:09:55;;;;;;;0.50;0.20;;;25.10;42.30;;;;;;6251496;27;21549;-55
2022/06/02 17:13:05;;;;;;;0.20;0.20;;;25.00;42.30;;;;;;6262012;28;20035;-55
2022/06/02 17:16:36;;;;;;;0.40;0.20;;;24.90;42.40;;;;;;6231969;27;20075;-52
2022/06/02 17:20:00;;;;;;;0.20;0.15;;;25.00;42.50;;;;;;6247369;27;20296;-56
2022/06/02 17:23:23;;;;;;;0.20;0.20;;;24.90;42.50;;;;;;6226908;27;20151;-54
2022/06/02 17:26:59;;;;;;;0.20;0.20;;;24.90;42.50;;;;;;6270613;27;20115;-54
2022/06/02 17:30:09;;;;;;;0.40;0.30;;;24.90;42.50;;;;;;6263379;28;20950;-53
2022/06/02 17:33:19;;;;;;;0.30;0.20;;;24.90;42.50;;;;;;6251501;27;20047;-54
2022/06/02 17:36:39;;;;;;;0.20;0.20;;;24.90;42.50;;;;;;6242517;27;20599;-50
2022/06/02 17:39:59;;;;;;;0.28;0.28;;;24.90;42.50;;;;;;6256790;27;21346;-55
2022/06/02 17:43:13;;;;;;;0.20;0.20;;;24.90;42.60;;;;;;6264111;28;21251;-53
2022/06/02 17:46:31;;;;;;;0.25;0.25;;;24.90;42.70;;;;;;6247143;27;20039;-53
2022/06/02 17:49:52;;;;;;;0.20;0.17;;;24.80;42.80;;;;;;6264706;27;20156;-55
2022/06/02 17:53:06;;;;;;;0.30;0.30;;;24.80;42.90;;;;;;6276887;27;20043;-54
2022/06/02 17:56:30;;;;;;;0.30;0.30;;;24.80;42.90;;;;;;6282288;27;20857;-52
2022/06/02 17:59:50;;;;;;;0.20;0.20;;;24.70;42.90;;;;;;6281980;28;21010;-56
2022/06/02 18:02:55;;;;;;;0.25;0.25;;;24.80;43.00;;;;;;6280339;27;21214;-51
2022/06/02 18:06:06;;;;;;;0.13;0.13;;;24.80;43.00;;;;;;6263391;27;20159;-52
2022/06/02 18:09:20;;;;;;;0.20;0.20;;;24.70;42.90;;;;;;6268369;28;20049;-52
2022/06/02 18:12:33;;;;;;;0.20;0.20;;;24.90;43.10;;;;;;6273492;27;20112;-53
2022/06/02 18:15:49;;;;;;;0.13;0.10;;;24.70;43.00;;;;;;6263622;28;20198;-55
2022/06/02 18:19:16;;;;;;;0.20;0.20;;;24.90;43.20;;;;;;6265468;27;20032;-57
2022/06/02 18:22:52;;;;;;;0.40;0.30;;;24.80;43.20;;;;;;6282733;27;20066;-52
2022/06/02 18:25:55;;;;;;;0.20;0.20;;;24.80;43.30;;;;;;6282801;28;20078;-54